createdAt,value
2022-11-11T00:21:59.991Z,14.83
2022-11-11T00:52:30.111Z,11.63
2022-11-11T01:23:02.197Z,13.53
2022-11-11T01:53:29.709Z,12.57
2022-11-11T02:24:06.896Z,8.70
2022-11-11T02:54:33.891Z,9.43
2022-11-11T03:25:22.693Z,7.63
2022-11-11T03:55:53.589Z,7.90
2022-11-11T04:26:20.449Z,7.53
2022-11-11T04:56:58.160Z,11.53
2022-11-11T05:27:25.355Z,7.93
2022-11-11T05:57:52.238Z,10.13
2022-11-11T06:28:19.837Z,8.40
2022-11-11T06:58:46.992Z,17.20
2022-11-11T07:29:15.397Z,20.27
2022-11-11T07:59:43.045Z,13.40
2022-11-11T08:30:20.888Z,7.90
2022-11-11T09:00:48.965Z,4.80
2022-11-11T10:02:04.913Z,12.82
2022-11-11T10:32:37.707Z,5.25
2022-11-11T11:03:18.388Z,4.93
2022-11-11T11:33:59.927Z,4.57
2022-11-11T12:04:47.527Z,4.35
2022-11-11T12:35:45.274Z,4.80
2022-11-11T13:06:28.974Z,2.67
2022-11-11T13:37:00.111Z,5.07
2022-11-11T14:07:56.552Z,4.73
2022-11-11T14:38:48.096Z,9.63
2022-11-11T15:09:38.141Z,7.53
2022-11-11T15:40:06.549Z,10.87
2022-11-11T16:10:36.279Z,19.47
2022-11-11T16:41:03.210Z,23.43
2022-11-11T17:11:48.611Z,27.57
2022-11-11T17:42:18.458Z,22.50
2022-11-11T18:12:46.278Z,20.40
2022-11-11T18:43:12.917Z,21.03
2022-11-11T19:13:40.710Z,17.90
2022-11-11T19:44:13.308Z,18.77
2022-11-11T20:14:40.231Z,18.87
2022-11-11T20:45:12.532Z,18.77
2022-11-11T21:15:39.995Z,15.43
2022-11-11T21:46:09.441Z,16.23
2022-11-11T22:16:38.411Z,14.97
2022-11-11T22:47:05.724Z,16.90
2022-11-11T23:17:32.864Z,14.67
2022-11-11T23:47:59.721Z,13.90
